Lafayette, IN (47903)

12:05 AM EDT on September 21, 2014 (GMT -0400)
Prophet's Ridge | Change Station
CLOSE
Current Station
Personal Weather Station
Location: West Lafayette, IN
Elevation: 679 ft
Nearby Weather Stations
Active Advisory: Special Statement

Elev 679 ft 40.48 °N, 86.89 °W | Updated 39 seconds ago

Thunderstorm
Thunderstorm
67.5 °F
Feels Like 67.5 °F
N
2.0
Wind Variable Wind from SW
Gusts 3.0 mph

Today
High -- | Low -- °F
--% Chance of Precip.
Yesterday
High -- | Low -- °F
Precip. -- in
7:34 AM 7:46 PM
Waning Crescent, 9% visible
Pressure 29.85 in
Visibility 0.8 miles
Clouds Scattered Clouds 1500 ft
Mostly Cloudy 2900 ft
Overcast 4900 ft
Dew Point 66 °F
Humidity 96%
Rainfall 0.00 in
Snow Depth Not available.
UV 0 out of 12
Pollen 6.40 out of 12
Air Quality Not available.
Flu Activity Not available.
METAR KLAF 210354Z AUTO 26011KT 3/4SM +TSRA BR SCT015 BKN029 OVC049 19/19 A2986 RMK AO2 LTG DSNT W RAB22 TSB32 SLP107 P0045 T01940194 $

More Conditions Fewer Conditions

Pressure 29.85 in
Visibility 0.8 miles
Clouds Scattered Clouds 1500 ft
Mostly Cloudy 2900 ft
Overcast 4900 ft
Dew Point 66 °F
Humidity 96%
Rainfall 0.00 in
Snow Depth Not available.
UV 0 out of 12
Pollen 6.40 out of 12
Air Quality Not available.
Flu Activity Not available.
METAR KLAF 210354Z AUTO 26011KT 3/4SM +TSRA BR SCT015 BKN029 OVC049 19/19 A2986 RMK AO2 LTG DSNT W RAB22 TSB32 SLP107 P0045 T01940194 $

More Conditions Fewer Conditions

10-Day Weather Forecast

Almanac

Astronomy

Sep. 21, 2014 Rise Set
Actual Time 7:34 AM EDT 7:46 PM EDT
Civil Twilight 7:06 AM EDT 8:13 PM EDT
Nautical Twilight 6:34 AM EDT 8:45 PM EDT
Astronomical Twilight 6:02 AM EDT 9:17 PM EDT
Moon 5:06 AM EDT 6:22 PM EDT
Length of Visible Light 13h 06m
Length of Day
12h 12m
Tomorrow will be 2m 39s shorter.
Waning Crescent, 9% of the Moon is Illuminated
Today
Waning Crescent
Sep 24
New
Oct 1
First Quarter
Oct 8
Full
Oct 15
Last Quarter

Yesterday's Extremes

State Highs State Lows

Community

WunderPhotos

Upload Photos

1,755,084 photos uploaded!

Nearby

Snow Depth

Station Depth Elevation
No new snow has been reported.

Earthquake Activity

City Distance Mag. Time & Date
No recent earthquake activity has been reported nearby.
Minimum magnitude displayed is 2.5.

Coastal Water Temperatures

Place Temperature
No Stations Reporting

Nearby Weather Stations